createdAt,value
2017-07-29T00:01:51.053Z,101067.17
2017-07-29T00:04:19.416Z,101058.83
2017-07-29T00:06:47.783Z,101061.26
2017-07-29T00:09:16.603Z,101057.98
2017-07-29T00:11:44.967Z,101052.27
2017-07-29T00:14:14.095Z,101053.42
2017-07-29T00:16:43.365Z,101051.18
2017-07-29T00:19:11.699Z,101047.78
2017-07-29T00:21:40.036Z,101047.80
2017-07-29T00:24:08.717Z,101040.83
2017-07-29T00:26:37.064Z,101041.88
2017-07-29T00:29:05.410Z,101044.97
2017-07-29T00:31:34.359Z,101046.68
2017-07-29T00:34:02.716Z,101046.05
2017-07-29T00:36:31.077Z,101042.77
2017-07-29T00:38:59.740Z,101050.69
2017-07-29T00:41:28.089Z,101046.58
2017-07-29T00:43:56.463Z,101044.15
2017-07-29T00:46:25.146Z,101047.41
2017-07-29T00:48:53.524Z,101040.25
2017-07-29T00:51:21.912Z,101037.50
2017-07-29T00:53:50.745Z,101035.16
2017-07-29T00:56:19.103Z,101030.53
2017-07-29T00:58:47.453Z,101028.52
2017-07-29T01:01:16.306Z,101028.50
2017-07-29T01:03:44.649Z,101029.85
2017-07-29T01:06:13.006Z,101035.36
2017-07-29T01:08:41.684Z,101032.30
2017-07-29T01:11:10.049Z,101032.61
2017-07-29T01:13:38.407Z,101037.47
2017-07-29T01:16:07.089Z,101029.02
2017-07-29T01:18:36.229Z,101043.67
2017-07-29T01:21:04.599Z,101032.81
2017-07-29T01:23:33.463Z,101027.77
2017-07-29T01:26:01.811Z,101025.25
2017-07-29T01:28:30.926Z,101029.80
2017-07-29T01:31:00.318Z,101031.47
2017-07-29T01:33:28.671Z,101036.55
2017-07-29T01:35:57.060Z,101036.97
2017-07-29T01:38:25.965Z,101034.94
2017-07-29T01:40:54.329Z,101031.05
2017-07-29T01:43:22.676Z,101032.02
2017-07-29T01:45:51.407Z,101028.00
2017-07-29T01:48:20.559Z,101023.57
2017-07-29T01:50:48.926Z,101027.36
2017-07-29T01:53:17.720Z,101029.91
2017-07-29T01:55:46.064Z,101032.03
2017-07-29T01:58:14.936Z,101035.50
2017-07-29T02:00:43.891Z,101034.54
2017-07-29T02:03:12.242Z,101036.33
2017-07-29T02:05:40.570Z,101028.97
2017-07-29T02:08:09.194Z,101023.03
2017-07-29T02:10:37.530Z,101029.25
2017-07-29T02:13:05.880Z,101027.27
2017-07-29T02:15:34.665Z,101027.37
2017-07-29T02:18:03.016Z,101018.40
2017-07-29T02:20:32.117Z,101013.97
2017-07-29T02:23:01.631Z,101020.30
2017-07-29T02:25:29.989Z,101018.72
2017-07-29T02:27:58.357Z,101022.52
2017-07-29T02:30:27.191Z,101021.25
2017-07-29T02:32:55.547Z,101011.22
2017-07-29T02:35:24.665Z,101010.80
2017-07-29T02:37:53.487Z,101003.20
2017-07-29T02:40:21.867Z,100993.91
2017-07-29T02:42:50.258Z,100987.36
2017-07-29T02:45:18.952Z,100979.86
2017-07-29T02:47:47.320Z,100977.94
2017-07-29T02:50:15.693Z,100975.64
2017-07-29T02:52:44.554Z,100984.28
2017-07-29T02:55:12.908Z,100986.95
2017-07-29T02:57:41.249Z,100984.20
2017-07-29T03:00:09.906Z,100984.20
2017-07-29T03:02:38.248Z,100988.00
2017-07-29T03:05:06.587Z,100982.20
2017-07-29T03:07:36.940Z,100990.01
2017-07-29T03:10:05.290Z,100980.52
2017-07-29T03:12:33.665Z,100988.33
2017-07-29T03:15:02.294Z,100991.80
2017-07-29T03:17:30.635Z,100991.70
2017-07-29T03:19:59.011Z,100983.56
2017-07-29T03:22:27.968Z,100984.73
2017-07-29T03:24:56.315Z,100987.14
2017-07-29T03:27:24.666Z,100984.09
2017-07-29T03:29:53.822Z,100982.16
2017-07-29T03:32:22.141Z,100982.52
2017-07-29T03:34:50.478Z,100967.00
2017-07-29T03:37:19.130Z,100960.89
2017-07-29T03:39:47.487Z,100956.88
2017-07-29T03:42:15.851Z,100952.23
2017-07-29T03:44:44.532Z,100951.39
2017-07-29T03:47:12.865Z,100950.34
2017-07-29T03:49:41.235Z,100953.50
2017-07-29T03:52:09.922Z,100942.42
2017-07-29T03:54:38.298Z,100949.81
2017-07-29T03:57:07.452Z,100957.51
2017-07-29T03:59:36.114Z,100948.44
2017-07-29T04:02:04.470Z,100949.70
2017-07-29T04:04:32.825Z,100947.06
2017-07-29T04:07:01.478Z,100944.75
2017-07-29T04:09:29.822Z,100942.74
2017-07-29T04:11:58.938Z,100944.33
2017-07-29T04:14:27.957Z,100939.16
2017-07-29T04:16:56.280Z,100939.47
2017-07-29T04:19:24.642Z,100942.63
2017-07-29T04:21:53.324Z,100943.80
2017-07-29T04:24:21.666Z,100939.58
2017-07-29T04:26:49.997Z,100946.44
2017-07-29T04:29:18.614Z,100938.63
2017-07-29T04:31:47.076Z,100932.19
2017-07-29T04:34:15.427Z,100939.31
2017-07-29T04:36:44.504Z,100930.77
2017-07-29T04:39:12.858Z,100923.81
2017-07-29T04:41:41.202Z,100931.45
2017-07-29T04:44:09.843Z,100930.86
2017-07-29T04:46:38.199Z,100934.05
2017-07-29T04:49:06.556Z,100932.36
2017-07-29T04:51:36.191Z,100932.66
2017-07-29T04:54:04.522Z,100933.82
2017-07-29T04:56:32.888Z,100936.04
2017-07-29T04:59:01.657Z,100925.44
2017-07-29T05:01:30.000Z,100925.66
2017-07-29T05:03:58.350Z,100920.55
2017-07-29T05:06:27.260Z,100919.81
2017-07-29T05:08:55.703Z,100925.23
2017-07-29T05:11:24.116Z,100929.23
2017-07-29T05:13:53.623Z,100920.91
2017-07-29T05:16:22.719Z,100917.73
2017-07-29T05:18:51.817Z,100918.48
2017-07-29T05:21:21.439Z,100922.70
2017-07-29T05:23:49.769Z,100914.58
2017-07-29T05:26:18.123Z,100914.36
2017-07-29T05:28:46.903Z,100919.00
2017-07-29T05:31:15.266Z,100915.00
2017-07-29T05:33:43.640Z,100921.43
2017-07-29T05:36:12.267Z,100924.70
2017-07-29T05:38:40.614Z,100921.86
2017-07-29T05:41:08.964Z,100913.73
2017-07-29T05:43:38.703Z,100913.94
2017-07-29T05:46:07.052Z,100901.59
2017-07-29T05:48:35.406Z,100901.28
2017-07-29T05:51:04.029Z,100908.10
2017-07-29T05:53:32.359Z,100902.13
2017-07-29T05:56:00.731Z,100902.77
2017-07-29T05:58:29.360Z,100892.32
2017-07-29T06:00:58.492Z,100906.88
2017-07-29T06:03:26.821Z,100901.08
2017-07-29T06:05:55.878Z,100898.81
2017-07-29T06:08:24.297Z,100903.57
2017-07-29T06:10:52.636Z,100895.59
2017-07-29T06:13:21.409Z,100898.02
2017-07-29T06:15:49.744Z,100891.89
2017-07-29T06:18:18.091Z,100892.30
2017-07-29T06:20:46.717Z,100889.34
2017-07-29T06:23:15.073Z,100888.20
2017-07-29T06:25:43.425Z,100895.27
2017-07-29T06:28:12.263Z,100895.17
2017-07-29T06:30:41.506Z,100902.88
2017-07-29T06:33:09.846Z,100911.47
2017-07-29T06:35:38.769Z,100919.90
2017-07-29T06:38:07.114Z,100909.96
2017-07-29T06:40:35.469Z,100899.95
2017-07-29T06:43:04.098Z,100894.19
2017-07-29T06:45:33.354Z,100902.18
2017-07-29T06:48:01.700Z,100901.92
2017-07-29T06:50:30.700Z,100892.29
2017-07-29T06:52:59.051Z,100888.49
2017-07-29T06:55:27.428Z,100888.37
2017-07-29T06:57:56.133Z,100891.86
2017-07-29T07:00:24.473Z,100885.15
2017-07-29T07:02:52.830Z,100879.97
2017-07-29T07:05:21.622Z,100872.75
2017-07-29T07:07:49.949Z,100879.56
2017-07-29T07:10:18.302Z,100877.52
2017-07-29T07:12:47.069Z,100869.80
2017-07-29T07:15:15.421Z,100870.52
2017-07-29T07:17:43.817Z,100870.36
2017-07-29T07:20:12.490Z,100864.40
2017-07-29T07:22:40.847Z,100870.81
2017-07-29T07:25:09.211Z,100875.26
2017-07-29T07:27:38.132Z,100878.24
2017-07-29T07:30:06.482Z,100875.70
2017-07-29T07:32:35.605Z,100872.98
2017-07-29T07:35:04.714Z,100869.31
2017-07-29T07:37:33.079Z,100879.37
2017-07-29T07:40:01.434Z,100873.55
2017-07-29T07:42:30.219Z,100872.98
2017-07-29T07:44:58.578Z,100873.18
2017-07-29T07:47:26.927Z,100869.17
2017-07-29T07:49:55.891Z,100864.89
2017-07-29T07:52:24.264Z,100860.11
2017-07-29T07:54:52.581Z,100849.91
2017-07-29T07:57:22.115Z,100859.78
2017-07-29T07:59:50.434Z,100868.09
2017-07-29T08:02:18.774Z,100870.97
2017-07-29T08:04:47.789Z,100867.77
2017-07-29T08:07:16.107Z,100869.55
2017-07-29T08:09:44.500Z,100869.27
2017-07-29T08:12:13.240Z,100876.23
2017-07-29T08:14:41.615Z,100868.73
2017-07-29T08:17:09.956Z,100872.60
2017-07-29T08:19:39.110Z,100874.50
2017-07-29T08:22:07.468Z,100871.13
2017-07-29T08:24:36.578Z,100880.38
2017-07-29T08:27:05.372Z,100870.73
2017-07-29T08:29:33.737Z,100865.57
2017-07-29T08:32:02.073Z,100870.59
2017-07-29T08:34:32.103Z,100866.83
2017-07-29T08:37:01.897Z,100865.70
2017-07-29T08:39:30.231Z,100857.22
2017-07-29T08:41:59.159Z,100867.93
2017-07-29T08:44:27.614Z,100869.61
2017-07-29T08:46:55.981Z,100864.30
2017-07-29T08:49:24.997Z,100861.77
2017-07-29T08:51:53.382Z,100856.98
2017-07-29T08:54:22.651Z,100867.84
2017-07-29T08:56:51.262Z,100858.53
2017-07-29T08:59:20.302Z,100860.30
2017-07-29T09:01:48.678Z,100863.06
2017-07-29T09:04:17.446Z,100859.37
2017-07-29T09:06:45.848Z,100866.34
2017-07-29T09:09:14.203Z,100863.92
2017-07-29T09:11:42.958Z,100865.92
2017-07-29T09:14:11.304Z,100869.58
2017-07-29T09:16:40.547Z,100869.86
2017-07-29T09:19:09.197Z,100869.52
2017-07-29T09:21:37.563Z,100870.19
2017-07-29T09:24:05.907Z,100870.59
2017-07-29T09:26:35.274Z,100866.52
2017-07-29T09:29:03.652Z,100871.80
2017-07-29T09:31:32.017Z,100870.25
2017-07-29T09:34:00.922Z,100867.91
2017-07-29T09:36:29.271Z,100867.06
2017-07-29T09:38:57.670Z,100865.38
2017-07-29T09:41:26.357Z,100869.70
2017-07-29T09:43:54.701Z,100869.88
2017-07-29T09:46:23.060Z,100873.83
2017-07-29T09:48:51.919Z,100891.09
2017-07-29T09:51:20.286Z,100885.34
2017-07-29T09:53:48.635Z,100894.46
2017-07-29T09:56:17.468Z,100894.63
2017-07-29T09:58:46.546Z,100904.66
2017-07-29T10:01:14.902Z,100899.25
2017-07-29T10:03:43.596Z,100908.25
2017-07-29T10:06:11.936Z,100911.84
2017-07-29T10:08:40.328Z,100914.53
2017-07-29T10:11:09.520Z,100913.67
2017-07-29T10:13:37.883Z,100914.67
2017-07-29T10:16:06.262Z,100912.34
2017-07-29T10:18:34.879Z,100916.28
2017-07-29T10:21:03.244Z,100908.95
2017-07-29T10:23:31.575Z,100901.36
2017-07-29T10:26:01.085Z,100904.80
2017-07-29T10:28:29.436Z,100898.40
2017-07-29T10:30:58.015Z,100903.62
2017-07-29T10:33:27.183Z,100904.70
2017-07-29T10:35:55.542Z,100908.98
2017-07-29T10:38:24.579Z,100907.66
2017-07-29T10:40:53.216Z,100905.44
2017-07-29T10:43:21.600Z,100913.80
2017-07-29T10:45:49.965Z,100921.16
2017-07-29T10:48:18.789Z,100923.09
2017-07-29T10:50:47.169Z,100913.48
2017-07-29T10:53:15.540Z,100921.17
2017-07-29T10:55:44.396Z,100937.84
2017-07-29T10:58:12.810Z,100933.30
2017-07-29T11:00:41.176Z,100937.14
2017-07-29T11:03:09.959Z,100946.42
2017-07-29T11:05:39.108Z,100950.38
2017-07-29T11:08:07.463Z,100942.61
2017-07-29T11:10:36.213Z,100952.25
2017-07-29T11:13:04.647Z,100953.84
2017-07-29T11:15:33.009Z,100959.70
2017-07-29T11:18:01.922Z,100964.69
2017-07-29T11:20:30.280Z,100958.61
2017-07-29T11:22:58.644Z,100959.11
2017-07-29T11:25:27.506Z,100955.59
2017-07-29T11:27:55.851Z,100962.52
2017-07-29T11:30:24.978Z,100966.44
2017-07-29T11:32:53.617Z,100971.54
2017-07-29T11:35:21.972Z,100975.13
2017-07-29T11:37:50.378Z,100976.64
2017-07-29T11:40:20.286Z,100976.39
2017-07-29T11:42:48.638Z,100977.89
2017-07-29T11:45:17.322Z,100969.62
2017-07-29T11:47:46.107Z,100965.10
2017-07-29T11:50:14.480Z,100952.67
2017-07-29T11:52:42.820Z,100945.42
2017-07-29T11:55:11.603Z,100950.95
2017-07-29T11:57:39.946Z,100953.73
2017-07-29T12:00:08.282Z,100950.76
2017-07-29T12:02:37.168Z,100957.19
2017-07-29T12:05:05.531Z,100955.59
2017-07-29T12:07:33.884Z,100951.75
2017-07-29T12:10:02.644Z,100941.95
2017-07-29T12:12:31.019Z,100943.34
2017-07-29T12:14:59.371Z,100945.25
2017-07-29T12:17:29.017Z,100938.56
2017-07-29T12:19:57.390Z,100941.43
2017-07-29T12:22:25.760Z,100940.67
2017-07-29T12:24:54.674Z,100945.10
2017-07-29T12:27:23.028Z,100938.63
2017-07-29T12:29:51.400Z,100945.81
2017-07-29T12:32:20.072Z,100942.81
2017-07-29T12:34:48.426Z,100942.24
2017-07-29T12:37:16.782Z,100943.75
2017-07-29T12:39:46.082Z,100934.98
2017-07-29T12:42:14.461Z,100936.20
2017-07-29T12:44:42.866Z,100946.22
2017-07-29T12:47:11.849Z,100944.56
2017-07-29T12:49:40.204Z,100961.47
2017-07-29T12:52:08.557Z,100955.35
2017-07-29T12:54:37.370Z,100959.43
2017-07-29T12:57:05.734Z,100958.80
2017-07-29T12:59:34.082Z,100950.56
2017-07-29T13:02:02.807Z,100948.27
2017-07-29T13:04:31.161Z,100957.70
2017-07-29T13:06:59.551Z,100965.23
2017-07-29T13:09:28.382Z,100986.75
2017-07-29T13:11:56.777Z,100978.12
2017-07-29T13:14:25.136Z,100978.88
2017-07-29T13:16:54.002Z,100983.28
2017-07-29T13:19:22.417Z,100979.89
2017-07-29T13:21:50.768Z,100989.22
2017-07-29T13:24:19.585Z,100980.34
2017-07-29T13:26:47.946Z,100982.73
2017-07-29T13:29:16.298Z,100983.70
2017-07-29T13:31:45.433Z,100978.63
2017-07-29T13:34:13.803Z,100972.68
2017-07-29T13:36:42.155Z,100977.08
2017-07-29T13:39:10.858Z,100972.84
2017-07-29T13:41:39.210Z,100967.45
2017-07-29T13:44:07.618Z,100969.06
2017-07-29T13:46:36.500Z,100972.44
2017-07-29T13:49:05.298Z,100969.89
2017-07-29T13:51:33.689Z,100977.99
2017-07-29T13:54:02.659Z,100980.56
2017-07-29T13:56:31.019Z,100972.15
2017-07-29T13:58:59.388Z,100976.37
2017-07-29T14:01:28.041Z,100981.43
2017-07-29T14:03:56.430Z,100967.73
2017-07-29T14:06:24.782Z,100973.16
2017-07-29T14:08:53.684Z,100985.48
2017-07-29T14:11:22.048Z,100974.66
2017-07-29T14:13:50.381Z,100974.09
2017-07-29T14:16:19.202Z,100976.22
2017-07-29T14:18:47.549Z,100973.53
2017-07-29T14:21:15.947Z,100980.48
2017-07-29T14:23:45.577Z,100989.73
2017-07-29T14:26:13.925Z,100996.26
2017-07-29T14:28:42.528Z,101004.74
2017-07-29T14:31:11.184Z,101009.67
2017-07-29T14:33:39.546Z,101012.63
2017-07-29T14:36:07.916Z,101027.07
2017-07-29T14:38:36.878Z,101029.59
2017-07-29T14:41:05.235Z,101052.08
2017-07-29T14:43:33.599Z,101038.78
2017-07-29T14:46:02.347Z,101046.63
2017-07-29T14:48:37.392Z,101042.57
2017-07-29T14:51:06.106Z,101049.89
2017-07-29T14:53:34.460Z,101047.19
2017-07-29T14:56:02.827Z,101046.17
2017-07-29T14:58:32.108Z,101061.94
2017-07-29T15:01:00.447Z,101055.52
2017-07-29T15:03:29.525Z,101044.11
2017-07-29T15:05:58.373Z,101045.95
2017-07-29T15:08:26.736Z,101049.67
2017-07-29T15:10:55.833Z,101042.94
2017-07-29T15:13:24.457Z,101044.12
2017-07-29T15:15:52.870Z,101038.79
2017-07-29T15:18:21.221Z,101033.25
2017-07-29T15:20:49.953Z,101034.78
2017-07-29T15:23:19.082Z,101021.28
2017-07-29T15:25:47.460Z,101022.00
2017-07-29T15:28:16.229Z,101026.53
2017-07-29T15:30:45.350Z,101026.22
2017-07-29T15:33:13.726Z,101021.97
2017-07-29T15:35:42.613Z,101016.63
2017-07-29T15:38:10.977Z,101022.16
2017-07-29T15:40:39.331Z,101020.99
2017-07-29T15:43:08.479Z,101025.64
2017-07-29T15:45:36.850Z,101017.13
2017-07-29T15:48:05.222Z,101021.95
2017-07-29T15:50:33.907Z,101023.45
2017-07-29T15:53:02.291Z,101024.28
2017-07-29T15:55:30.686Z,101022.40
2017-07-29T15:57:59.570Z,101018.51
2017-07-29T16:00:27.930Z,101013.09
2017-07-29T16:02:56.335Z,101018.66
2017-07-29T16:05:25.306Z,101014.84
2017-07-29T16:07:53.668Z,101013.64
2017-07-29T16:10:22.038Z,101016.89
2017-07-29T16:12:50.654Z,101011.91
2017-07-29T16:15:19.014Z,101007.25
2017-07-29T16:17:48.140Z,101011.92
2017-07-29T16:20:16.854Z,101020.82
2017-07-29T16:22:45.248Z,101018.67
2017-07-29T16:25:13.615Z,101019.39
2017-07-29T16:27:42.557Z,101027.25
2017-07-29T16:30:10.944Z,101030.11
2017-07-29T16:32:39.318Z,101027.13
2017-07-29T16:35:08.202Z,101030.73
2017-07-29T16:37:36.552Z,101037.31
2017-07-29T16:40:05.682Z,101035.38
2017-07-29T16:42:34.334Z,101031.27
2017-07-29T16:45:02.674Z,101029.98
2017-07-29T16:47:31.028Z,101032.59
2017-07-29T16:49:59.982Z,101023.98
2017-07-29T16:52:28.356Z,101028.96
2017-07-29T16:54:56.714Z,101027.50
2017-07-29T16:57:25.426Z,101024.82
2017-07-29T16:59:53.804Z,101034.07
2017-07-29T17:02:22.167Z,101034.05
2017-07-29T17:04:50.787Z,101036.65
2017-07-29T17:07:19.121Z,101039.81
2017-07-29T17:09:47.519Z,101038.00
2017-07-29T17:12:16.357Z,101030.09
2017-07-29T17:14:44.727Z,101028.86
2017-07-29T17:17:13.091Z,101030.12
2017-07-29T17:19:42.743Z,101031.13
2017-07-29T17:22:11.115Z,101038.05
2017-07-29T17:24:39.460Z,101031.70
2017-07-29T17:27:08.666Z,101034.64
2017-07-29T17:29:37.783Z,101029.80
2017-07-29T17:32:06.155Z,101016.56
2017-07-29T17:34:35.316Z,101018.16
2017-07-29T17:37:03.668Z,101017.19
2017-07-29T17:39:32.019Z,101024.66
2017-07-29T17:42:00.896Z,101024.34
2017-07-29T17:44:29.280Z,101024.12
2017-07-29T17:46:57.652Z,101019.97
2017-07-29T17:49:26.335Z,101021.11
2017-07-29T17:51:54.702Z,101025.89
2017-07-29T17:54:23.054Z,101021.44
2017-07-29T17:56:52.000Z,101030.41
2017-07-29T17:59:20.342Z,101028.72
2017-07-29T18:01:48.712Z,101021.39
2017-07-29T18:04:17.407Z,101024.12
2017-07-29T18:06:45.747Z,101017.25
2017-07-29T18:09:14.092Z,101023.12
2017-07-29T18:11:43.017Z,101034.63
2017-07-29T18:14:11.389Z,101030.54
2017-07-29T18:16:39.754Z,101036.65
2017-07-29T18:19:08.532Z,101011.97
2017-07-29T18:21:36.928Z,101012.41
2017-07-29T18:24:05.287Z,101005.07
2017-07-29T18:26:33.935Z,101014.41
2017-07-29T18:29:03.052Z,101019.90
2017-07-29T18:31:31.422Z,101020.11
2017-07-29T18:34:00.288Z,101013.23
2017-07-29T18:36:28.651Z,101013.41
2017-07-29T18:38:57.010Z,101017.16
2017-07-29T18:41:25.987Z,101010.08
2017-07-29T18:43:55.139Z,101010.20
2017-07-29T18:46:23.548Z,101009.17
2017-07-29T18:48:52.161Z,101012.55
2017-07-29T18:51:20.497Z,101011.03
2017-07-29T18:53:48.829Z,101013.25
2017-07-29T18:56:17.556Z,101008.45
2017-07-29T18:58:45.889Z,101007.41
2017-07-29T19:01:14.239Z,101003.25
2017-07-29T19:03:44.075Z,101008.62
2017-07-29T19:06:12.419Z,101006.33
2017-07-29T19:08:40.807Z,101002.39
2017-07-29T19:11:09.518Z,101003.11
2017-07-29T19:13:37.862Z,101003.95
2017-07-29T19:16:06.182Z,101006.89
2017-07-29T19:18:34.822Z,101006.38
2017-07-29T19:21:03.172Z,101009.08
2017-07-29T19:23:31.561Z,101007.33
2017-07-29T19:26:01.171Z,101009.27
2017-07-29T19:28:29.540Z,101007.56
2017-07-29T19:30:57.888Z,101010.16
2017-07-29T19:33:26.536Z,101010.59
2017-07-29T19:35:54.881Z,101008.30
2017-07-29T19:38:23.229Z,101015.59
2017-07-29T19:40:51.947Z,101017.89
2017-07-29T19:43:20.318Z,101007.30
2017-07-29T19:45:48.678Z,101002.86
2017-07-29T19:48:17.984Z,101010.16
2017-07-29T19:50:46.344Z,101008.83
2017-07-29T19:53:15.476Z,101006.89
2017-07-29T19:55:44.162Z,101011.03
2017-07-29T19:58:12.538Z,101003.53
2017-07-29T20:00:40.905Z,101004.93
2017-07-29T20:03:09.719Z,101003.47
2017-07-29T20:05:38.089Z,101002.58
2017-07-29T20:08:06.459Z,100998.98
2017-07-29T20:10:35.338Z,100999.27
2017-07-29T20:13:03.693Z,100999.65
2017-07-29T20:15:32.067Z,101002.78
2017-07-29T20:18:00.975Z,101000.59
2017-07-29T20:20:29.320Z,100991.02
2017-07-29T20:22:57.687Z,100988.33
2017-07-29T20:25:26.439Z,100984.25
2017-07-29T20:27:54.802Z,100991.56
2017-07-29T20:30:23.149Z,100985.27
2017-07-29T20:32:52.107Z,100987.92
2017-07-29T20:35:20.474Z,100980.78
2017-07-29T20:37:48.829Z,100980.61
2017-07-29T20:40:17.608Z,100979.47
2017-07-29T20:42:45.971Z,100974.66
2017-07-29T20:45:14.443Z,100965.89
2017-07-29T20:47:43.423Z,100965.17
2017-07-29T20:50:11.899Z,100954.53
2017-07-29T20:52:40.288Z,100966.23
2017-07-29T20:55:09.289Z,100958.07
2017-07-29T20:57:37.656Z,100958.73
2017-07-29T21:00:06.491Z,100965.07
2017-07-29T21:02:35.938Z,100962.33
2017-07-29T21:05:04.287Z,100961.59
2017-07-29T21:07:32.641Z,100962.94
2017-07-29T21:10:01.395Z,100966.23
2017-07-29T21:12:29.748Z,100955.50
2017-07-29T21:14:58.107Z,100956.23
2017-07-29T21:17:26.784Z,100951.40
2017-07-29T21:19:55.148Z,100952.06
2017-07-29T21:22:23.534Z,100946.61
2017-07-29T21:24:52.303Z,100938.74
2017-07-29T21:27:20.633Z,100939.22
2017-07-29T21:29:49.002Z,100938.14
2017-07-29T21:32:17.698Z,100946.03
2017-07-29T21:34:46.057Z,100933.99
2017-07-29T21:37:15.219Z,100939.13
2017-07-29T21:39:44.605Z,100937.73
2017-07-29T21:42:12.983Z,100929.41
2017-07-29T21:44:41.349Z,100923.48
2017-07-29T21:47:10.022Z,100918.26
2017-07-29T21:49:38.389Z,100920.08
2017-07-29T21:52:07.043Z,100917.80
2017-07-29T21:54:35.771Z,100909.39
2017-07-29T21:57:04.136Z,100910.27
2017-07-29T21:59:32.488Z,100908.27
2017-07-29T22:02:01.345Z,100906.20
2017-07-29T22:04:29.700Z,100898.58
2017-07-29T22:06:58.064Z,100899.77
2017-07-29T22:09:26.757Z,100891.80
2017-07-29T22:11:55.111Z,100897.56
2017-07-29T22:14:23.495Z,100890.96
2017-07-29T22:16:52.194Z,100882.58
2017-07-29T22:19:20.548Z,100876.25
2017-07-29T22:21:48.890Z,100864.77
2017-07-29T22:24:17.816Z,100868.08
2017-07-29T22:26:46.174Z,100855.02
2017-07-29T22:29:14.529Z,100858.95
2017-07-29T22:31:43.155Z,100846.38
2017-07-29T22:34:11.517Z,100854.30
2017-07-29T22:36:39.892Z,100853.31
2017-07-29T22:39:08.565Z,100856.52
2017-07-29T22:41:36.943Z,100851.66
2017-07-29T22:44:05.319Z,100843.07
2017-07-29T22:46:35.146Z,100838.32
2017-07-29T22:49:04.314Z,100835.12
2017-07-29T22:51:32.698Z,100845.84
2017-07-29T22:54:01.713Z,100840.53
2017-07-29T22:56:30.726Z,100831.57
2017-07-29T22:58:59.116Z,100832.63
2017-07-29T23:01:27.752Z,100836.05
2017-07-29T23:03:56.150Z,100830.22
2017-07-29T23:06:24.498Z,100824.40
2017-07-29T23:08:54.236Z,100823.42
2017-07-29T23:11:22.616Z,100825.75
2017-07-29T23:13:50.978Z,100825.03
2017-07-29T23:16:19.647Z,100834.42
2017-07-29T23:18:47.997Z,100832.88
2017-07-29T23:21:16.346Z,100823.72
2017-07-29T23:23:45.333Z,100817.22
2017-07-29T23:26:13.754Z,100808.73
2017-07-29T23:28:42.890Z,100811.73
2017-07-29T23:31:12.011Z,100803.56
2017-07-29T23:33:40.390Z,100794.08
2017-07-29T23:36:08.747Z,100792.09
2017-07-29T23:38:37.369Z,100781.17
2017-07-29T23:41:05.726Z,100788.00
2017-07-29T23:43:34.080Z,100787.28
2017-07-29T23:46:04.290Z,100788.11
2017-07-29T23:48:32.620Z,100784.22
2017-07-29T23:51:00.986Z,100788.95
2017-07-29T23:53:30.027Z,100782.87
2017-07-29T23:55:58.374Z,100779.88
2017-07-29T23:58:26.728Z,100782.21
